sensor_id;sensor_type;location;lat;lon;timestamp;P1;durP1;ratioP1;P2;durP2;ratioP2
773;SDS011;370;48.810;9.150;2023-02-12T00:01:37;20.60;;;7.55;;
773;SDS011;370;48.810;9.150;2023-02-12T00:04:04;19.75;;;5.40;;
773;SDS011;370;48.810;9.150;2023-02-12T00:06:30;21.15;;;7.07;;
773;SDS011;370;48.810;9.150;2023-02-12T00:08:58;14.40;;;6.25;;
773;SDS011;370;48.810;9.150;2023-02-12T00:11:26;27.27;;;8.02;;
773;SDS011;370;48.810;9.150;2023-02-12T00:13:54;22.83;;;6.82;;
773;SDS011;370;48.810;9.150;2023-02-12T00:16:22;21.92;;;8.60;;
773;SDS011;370;48.810;9.150;2023-02-12T00:18:51;21.92;;;6.90;;
773;SDS011;370;48.810;9.150;2023-02-12T00:21:19;25.38;;;7.63;;
773;SDS011;370;48.810;9.150;2023-02-12T00:23:46;22.48;;;8.02;;
773;SDS011;370;48.810;9.150;2023-02-12T00:26:15;16.77;;;6.43;;
773;SDS011;370;48.810;9.150;2023-02-12T00:28:43;19.30;;;5.93;;
773;SDS011;370;48.810;9.150;2023-02-12T00:31:10;16.67;;;5.05;;
773;SDS011;370;48.810;9.150;2023-02-12T00:33:38;22.85;;;5.55;;
773;SDS011;370;48.810;9.150;2023-02-12T00:36:06;24.55;;;6.75;;
773;SDS011;370;48.810;9.150;2023-02-12T00:38:34;26.20;;;6.75;;
773;SDS011;370;48.810;9.150;2023-02-12T00:41:01;14.38;;;5.10;;
773;SDS011;370;48.810;9.150;2023-02-12T00:43:29;17.48;;;6.65;;
773;SDS011;370;48.810;9.150;2023-02-12T00:45:55;19.20;;;5.15;;
773;SDS011;370;48.810;9.150;2023-02-12T00:48:22;14.65;;;5.35;;
773;SDS011;370;48.810;9.150;2023-02-12T00:50:49;11.63;;;5.35;;
773;SDS011;370;48.810;9.150;2023-02-12T00:53:16;15.23;;;5.85;;
773;SDS011;370;48.810;9.150;2023-02-12T00:55:43;15.88;;;5.93;;
773;SDS011;370;48.810;9.150;2023-02-12T00:58:10;21.42;;;7.10;;
773;SDS011;370;48.810;9.150;2023-02-12T01:00:39;18.17;;;5.53;;
773;SDS011;370;48.810;9.150;2023-02-12T01:03:05;18.20;;;6.38;;
773;SDS011;370;48.810;9.150;2023-02-12T01:05:32;12.10;;;5.68;;
773;SDS011;370;48.810;9.150;2023-02-12T01:07:59;11.98;;;5.68;;
773;SDS011;370;48.810;9.150;2023-02-12T01:10:26;14.27;;;5.88;;
773;SDS011;370;48.810;9.150;2023-02-12T01:12:53;17.98;;;7.10;;
773;SDS011;370;48.810;9.150;2023-02-12T01:15:20;14.88;;;6.30;;
773;SDS011;370;48.810;9.150;2023-02-12T01:17:49;15.77;;;6.03;;
773;SDS011;370;48.810;9.150;2023-02-12T01:20:18;14.77;;;5.25;;
773;SDS011;370;48.810;9.150;2023-02-12T01:22:47;19.63;;;6.00;;
773;SDS011;370;48.810;9.150;2023-02-12T01:25:13;19.25;;;5.40;;
773;SDS011;370;48.810;9.150;2023-02-12T01:27:40;9.63;;;5.30;;
773;SDS011;370;48.810;9.150;2023-02-12T01:30:09;17.42;;;6.10;;
773;SDS011;370;48.810;9.150;2023-02-12T01:32:38;13.93;;;4.53;;
773;SDS011;370;48.810;9.150;2023-02-12T01:35:06;17.42;;;6.50;;
773;SDS011;370;48.810;9.150;2023-02-12T01:37:34;12.68;;;5.60;;
773;SDS011;370;48.810;9.150;2023-02-12T01:40:01;19.10;;;8.35;;
773;SDS011;370;48.810;9.150;2023-02-12T01:42:28;16.77;;;6.38;;
773;SDS011;370;48.810;9.150;2023-02-12T01:48:04;15.10;;;5.90;;
773;SDS011;370;48.810;9.150;2023-02-12T01:50:32;15.70;;;6.72;;
773;SDS011;370;48.810;9.150;2023-02-12T01:52:59;31.33;;;7.13;;
773;SDS011;370;48.810;9.150;2023-02-12T01:55:26;21.05;;;8.05;;
773;SDS011;370;48.810;9.150;2023-02-12T01:57:54;12.07;;;5.63;;
773;SDS011;370;48.810;9.150;2023-02-12T02:00:22;20.30;;;6.22;;
773;SDS011;370;48.810;9.150;2023-02-12T02:02:51;16.85;;;6.68;;
773;SDS011;370;48.810;9.150;2023-02-12T02:05:22;19.20;;;5.53;;
773;SDS011;370;48.810;9.150;2023-02-12T02:07:54;23.85;;;7.45;;
773;SDS011;370;48.810;9.150;2023-02-12T02:10:21;21.98;;;5.70;;
773;SDS011;370;48.810;9.150;2023-02-12T02:12:48;19.27;;;6.85;;
773;SDS011;370;48.810;9.150;2023-02-12T02:15:32;14.20;;;6.07;;
773;SDS011;370;48.810;9.150;2023-02-12T02:18:01;14.32;;;5.63;;
773;SDS011;370;48.810;9.150;2023-02-12T02:23:47;19.33;;;6.15;;
773;SDS011;370;48.810;9.150;2023-02-12T02:26:32;13.35;;;5.15;;
773;SDS011;370;48.810;9.150;2023-02-12T02:29:40;17.20;;;6.28;;
773;SDS011;370;48.810;9.150;2023-02-12T02:32:42;16.27;;;5.53;;
773;SDS011;370;48.810;9.150;2023-02-12T02:35:17;10.80;;;5.35;;
773;SDS011;370;48.810;9.150;2023-02-12T02:37:53;17.38;;;7.03;;
773;SDS011;370;48.810;9.150;2023-02-12T02:40:29;18.92;;;6.75;;
773;SDS011;370;48.810;9.150;2023-02-12T02:43:03;15.23;;;6.28;;
773;SDS011;370;48.810;9.150;2023-02-12T02:45:36;15.73;;;6.25;;
773;SDS011;370;48.810;9.150;2023-02-12T02:48:11;13.20;;;5.30;;
773;SDS011;370;48.810;9.150;2023-02-12T02:50:43;17.52;;;5.75;;
773;SDS011;370;48.810;9.150;2023-02-12T02:53:14;15.35;;;4.90;;
773;SDS011;370;48.810;9.150;2023-02-12T02:55:46;8.73;;;4.05;;
773;SDS011;370;48.810;9.150;2023-02-12T02:58:16;20.67;;;7.03;;
773;SDS011;370;48.810;9.150;2023-02-12T03:00:49;17.25;;;6.13;;
773;SDS011;370;48.810;9.150;2023-02-12T03:03:22;17.70;;;4.85;;
773;SDS011;370;48.810;9.150;2023-02-12T03:05:55;9.45;;;4.40;;
773;SDS011;370;48.810;9.150;2023-02-12T03:08:26;13.95;;;5.55;;
773;SDS011;370;48.810;9.150;2023-02-12T03:10:59;14.68;;;5.70;;
773;SDS011;370;48.810;9.150;2023-02-12T03:13:31;20.60;;;6.97;;
773;SDS011;370;48.810;9.150;2023-02-12T03:16:03;21.70;;;6.10;;
773;SDS011;370;48.810;9.150;2023-02-12T03:18:37;15.93;;;5.70;;
773;SDS011;370;48.810;9.150;2023-02-12T03:21:09;19.10;;;7.00;;
773;SDS011;370;48.810;9.150;2023-02-12T03:23:41;17.02;;;5.95;;
773;SDS011;370;48.810;9.150;2023-02-12T03:26:13;12.75;;;5.60;;
773;SDS011;370;48.810;9.150;2023-02-12T03:28:44;14.32;;;4.97;;
773;SDS011;370;48.810;9.150;2023-02-12T03:31:15;11.98;;;4.45;;
773;SDS011;370;48.810;9.150;2023-02-12T03:33:51;15.75;;;6.10;;
773;SDS011;370;48.810;9.150;2023-02-12T03:36:29;23.52;;;6.60;;
773;SDS011;370;48.810;9.150;2023-02-12T03:39:03;12.73;;;5.18;;
773;SDS011;370;48.810;9.150;2023-02-12T03:41:37;16.55;;;5.57;;
773;SDS011;370;48.810;9.150;2023-02-12T03:44:09;12.63;;;4.65;;
773;SDS011;370;48.810;9.150;2023-02-12T03:46:43;12.13;;;4.47;;
773;SDS011;370;48.810;9.150;2023-02-12T03:49:19;13.18;;;6.05;;
773;SDS011;370;48.810;9.150;2023-02-12T03:51:48;17.27;;;6.10;;
773;SDS011;370;48.810;9.150;2023-02-12T03:54:15;19.42;;;6.50;;
773;SDS011;370;48.810;9.150;2023-02-12T03:56:45;18.88;;;6.93;;
773;SDS011;370;48.810;9.150;2023-02-12T03:59:16;26.02;;;6.18;;
773;SDS011;370;48.810;9.150;2023-02-12T04:01:43;13.05;;;4.65;;
773;SDS011;370;48.810;9.150;2023-02-12T04:04:11;21.02;;;6.68;;
773;SDS011;370;48.810;9.150;2023-02-12T04:06:39;15.07;;;6.53;;
773;SDS011;370;48.810;9.150;2023-02-12T04:09:07;17.65;;;5.15;;
773;SDS011;370;48.810;9.150;2023-02-12T04:11:40;11.85;;;5.85;;
773;SDS011;370;48.810;9.150;2023-02-12T04:14:21;12.75;;;5.70;;
773;SDS011;370;48.810;9.150;2023-02-12T04:16:56;21.45;;;5.20;;
773;SDS011;370;48.810;9.150;2023-02-12T04:19:29;17.80;;;5.50;;
773;SDS011;370;48.810;9.150;2023-02-12T04:22:04;14.73;;;5.53;;
773;SDS011;370;48.810;9.150;2023-02-12T04:24:42;12.82;;;5.25;;
773;SDS011;370;48.810;9.150;2023-02-12T04:27:15;22.25;;;6.28;;
773;SDS011;370;48.810;9.150;2023-02-12T04:29:47;10.32;;;5.07;;
773;SDS011;370;48.810;9.150;2023-02-12T04:32:22;21.30;;;6.80;;
773;SDS011;370;48.810;9.150;2023-02-12T04:34:56;11.95;;;4.97;;
773;SDS011;370;48.810;9.150;2023-02-12T04:37:29;19.05;;;6.03;;
773;SDS011;370;48.810;9.150;2023-02-12T04:40:02;13.13;;;5.65;;
773;SDS011;370;48.810;9.150;2023-02-12T04:42:31;16.55;;;5.95;;
773;SDS011;370;48.810;9.150;2023-02-12T04:45:08;20.77;;;6.80;;
773;SDS011;370;48.810;9.150;2023-02-12T04:47:35;25.27;;;9.00;;
773;SDS011;370;48.810;9.150;2023-02-12T04:50:02;27.85;;;7.80;;
773;SDS011;370;48.810;9.150;2023-02-12T04:52:30;26.92;;;9.75;;
773;SDS011;370;48.810;9.150;2023-02-12T04:54:57;28.85;;;8.90;;
773;SDS011;370;48.810;9.150;2023-02-12T04:57:24;23.42;;;9.70;;
773;SDS011;370;48.810;9.150;2023-02-12T04:59:51;18.88;;;8.75;;
773;SDS011;370;48.810;9.150;2023-02-12T05:02:17;17.45;;;8.15;;
773;SDS011;370;48.810;9.150;2023-02-12T05:04:44;24.35;;;9.23;;
773;SDS011;370;48.810;9.150;2023-02-12T05:07:11;25.58;;;11.18;;
773;SDS011;370;48.810;9.150;2023-02-12T05:09:39;17.20;;;8.32;;
773;SDS011;370;48.810;9.150;2023-02-12T05:12:06;20.13;;;8.75;;
773;SDS011;370;48.810;9.150;2023-02-12T05:14:33;25.67;;;9.50;;
773;SDS011;370;48.810;9.150;2023-02-12T05:17:00;29.77;;;10.27;;
773;SDS011;370;48.810;9.150;2023-02-12T05:19:26;26.83;;;9.90;;
773;SDS011;370;48.810;9.150;2023-02-12T05:21:53;25.60;;;8.98;;
773;SDS011;370;48.810;9.150;2023-02-12T05:24:20;34.33;;;10.02;;
773;SDS011;370;48.810;9.150;2023-02-12T05:26:48;28.45;;;9.90;;
773;SDS011;370;48.810;9.150;2023-02-12T05:29:15;20.10;;;9.75;;
773;SDS011;370;48.810;9.150;2023-02-12T05:31:42;24.95;;;10.20;;
773;SDS011;370;48.810;9.150;2023-02-12T05:34:09;26.80;;;7.75;;
773;SDS011;370;48.810;9.150;2023-02-12T05:36:37;22.02;;;9.35;;
773;SDS011;370;48.810;9.150;2023-02-12T05:39:04;25.58;;;9.27;;
773;SDS011;370;48.810;9.150;2023-02-12T05:41:32;23.80;;;8.65;;
773;SDS011;370;48.810;9.150;2023-02-12T05:44:01;28.98;;;9.07;;
773;SDS011;370;48.810;9.150;2023-02-12T05:46:28;22.33;;;9.00;;
773;SDS011;370;48.810;9.150;2023-02-12T05:48:56;26.88;;;9.50;;
773;SDS011;370;48.810;9.150;2023-02-12T05:51:23;26.13;;;7.10;;
773;SDS011;370;48.810;9.150;2023-02-12T05:53:51;31.13;;;9.48;;
773;SDS011;370;48.810;9.150;2023-02-12T05:56:21;21.50;;;8.90;;
773;SDS011;370;48.810;9.150;2023-02-12T05:58:51;20.38;;;8.80;;
773;SDS011;370;48.810;9.150;2023-02-12T06:01:21;18.95;;;8.32;;
773;SDS011;370;48.810;9.150;2023-02-12T06:03:49;22.30;;;9.07;;
773;SDS011;370;48.810;9.150;2023-02-12T06:06:16;13.52;;;7.32;;
773;SDS011;370;48.810;9.150;2023-02-12T06:08:43;18.95;;;6.90;;
773;SDS011;370;48.810;9.150;2023-02-12T06:11:13;21.42;;;8.00;;
773;SDS011;370;48.810;9.150;2023-02-12T06:13:41;17.92;;;8.15;;
773;SDS011;370;48.810;9.150;2023-02-12T06:16:15;23.23;;;8.38;;
773;SDS011;370;48.810;9.150;2023-02-12T06:18:44;18.70;;;7.47;;
773;SDS011;370;48.810;9.150;2023-02-12T06:21:11;43.92;;;8.70;;
773;SDS011;370;48.810;9.150;2023-02-12T06:23:38;30.50;;;8.70;;
773;SDS011;370;48.810;9.150;2023-02-12T06:26:05;22.35;;;9.57;;
773;SDS011;370;48.810;9.150;2023-02-12T06:28:32;20.42;;;8.13;;
773;SDS011;370;48.810;9.150;2023-02-12T06:30:59;25.05;;;9.35;;
773;SDS011;370;48.810;9.150;2023-02-12T06:33:26;21.23;;;8.30;;
773;SDS011;370;48.810;9.150;2023-02-12T06:35:54;20.73;;;8.95;;
773;SDS011;370;48.810;9.150;2023-02-12T06:38:21;29.90;;;6.90;;
773;SDS011;370;48.810;9.150;2023-02-12T06:40:48;18.75;;;6.95;;
773;SDS011;370;48.810;9.150;2023-02-12T06:43:14;18.98;;;7.85;;
773;SDS011;370;48.810;9.150;2023-02-12T06:45:41;22.90;;;6.82;;
773;SDS011;370;48.810;9.150;2023-02-12T06:48:08;22.33;;;7.07;;
773;SDS011;370;48.810;9.150;2023-02-12T06:50:35;31.35;;;8.32;;
773;SDS011;370;48.810;9.150;2023-02-12T06:53:03;19.88;;;8.05;;
773;SDS011;370;48.810;9.150;2023-02-12T06:55:29;16.20;;;8.20;;
773;SDS011;370;48.810;9.150;2023-02-12T06:57:56;21.35;;;6.88;;
773;SDS011;370;48.810;9.150;2023-02-12T07:00:23;40.00;;;8.38;;
773;SDS011;370;48.810;9.150;2023-02-12T07:02:53;33.13;;;9.27;;
773;SDS011;370;48.810;9.150;2023-02-12T07:05:20;23.25;;;8.05;;
773;SDS011;370;48.810;9.150;2023-02-12T07:07:48;24.85;;;7.97;;
773;SDS011;370;48.810;9.150;2023-02-12T07:10:16;25.27;;;8.95;;
773;SDS011;370;48.810;9.150;2023-02-12T07:12:43;25.48;;;7.55;;
773;SDS011;370;48.810;9.150;2023-02-12T07:15:10;33.42;;;9.23;;
773;SDS011;370;48.810;9.150;2023-02-12T07:17:37;24.45;;;10.30;;
773;SDS011;370;48.810;9.150;2023-02-12T07:20:04;19.38;;;8.80;;
773;SDS011;370;48.810;9.150;2023-02-12T07:22:34;20.02;;;8.52;;
773;SDS011;370;48.810;9.150;2023-02-12T07:25:01;18.58;;;8.18;;
773;SDS011;370;48.810;9.150;2023-02-12T07:27:30;24.27;;;8.10;;
773;SDS011;370;48.810;9.150;2023-02-12T07:29:56;20.48;;;9.65;;
773;SDS011;370;48.810;9.150;2023-02-12T07:32:23;27.40;;;10.10;;
773;SDS011;370;48.810;9.150;2023-02-12T07:34:50;20.65;;;8.57;;
773;SDS011;370;48.810;9.150;2023-02-12T07:37:17;30.10;;;11.07;;
773;SDS011;370;48.810;9.150;2023-02-12T07:39:46;21.25;;;8.63;;
773;SDS011;370;48.810;9.150;2023-02-12T07:42:13;23.92;;;10.13;;
773;SDS011;370;48.810;9.150;2023-02-12T07:44:41;23.10;;;8.75;;
773;SDS011;370;48.810;9.150;2023-02-12T07:47:08;18.58;;;8.02;;
773;SDS011;370;48.810;9.150;2023-02-12T07:49:34;24.60;;;9.55;;
773;SDS011;370;48.810;9.150;2023-02-12T07:52:01;23.65;;;9.20;;
773;SDS011;370;48.810;9.150;2023-02-12T07:54:28;26.13;;;9.35;;
773;SDS011;370;48.810;9.150;2023-02-12T07:56:55;23.10;;;9.05;;
773;SDS011;370;48.810;9.150;2023-02-12T07:59:22;25.02;;;9.98;;
773;SDS011;370;48.810;9.150;2023-02-12T08:01:50;28.27;;;10.27;;
773;SDS011;370;48.810;9.150;2023-02-12T08:04:19;23.17;;;9.50;;
773;SDS011;370;48.810;9.150;2023-02-12T08:06:47;28.33;;;10.43;;
773;SDS011;370;48.810;9.150;2023-02-12T08:09:16;25.42;;;9.05;;
773;SDS011;370;48.810;9.150;2023-02-12T08:11:45;25.90;;;10.70;;
773;SDS011;370;48.810;9.150;2023-02-12T08:14:12;26.90;;;11.25;;
773;SDS011;370;48.810;9.150;2023-02-12T08:16:40;22.92;;;9.55;;
773;SDS011;370;48.810;9.150;2023-02-12T08:19:11;23.15;;;9.70;;
773;SDS011;370;48.810;9.150;2023-02-12T08:21:40;27.95;;;9.57;;
773;SDS011;370;48.810;9.150;2023-02-12T08:24:08;29.15;;;12.43;;
773;SDS011;370;48.810;9.150;2023-02-12T08:26:36;52.38;;;11.52;;
773;SDS011;370;48.810;9.150;2023-02-12T08:29:04;29.00;;;9.63;;
773;SDS011;370;48.810;9.150;2023-02-12T08:31:33;26.65;;;11.02;;
773;SDS011;370;48.810;9.150;2023-02-12T08:34:02;24.60;;;9.55;;
773;SDS011;370;48.810;9.150;2023-02-12T08:36:34;26.38;;;10.68;;
773;SDS011;370;48.810;9.150;2023-02-12T08:39:02;25.15;;;10.60;;
773;SDS011;370;48.810;9.150;2023-02-12T08:41:30;30.77;;;11.15;;
773;SDS011;370;48.810;9.150;2023-02-12T08:43:58;21.55;;;9.60;;
773;SDS011;370;48.810;9.150;2023-02-12T08:46:27;26.23;;;9.43;;
773;SDS011;370;48.810;9.150;2023-02-12T08:48:55;27.50;;;12.02;;
773;SDS011;370;48.810;9.150;2023-02-12T08:51:24;23.13;;;10.65;;
773;SDS011;370;48.810;9.150;2023-02-12T08:53:54;24.50;;;9.00;;
773;SDS011;370;48.810;9.150;2023-02-12T08:56:22;29.92;;;10.60;;
773;SDS011;370;48.810;9.150;2023-02-12T08:58:50;23.85;;;10.88;;
773;SDS011;370;48.810;9.150;2023-02-12T09:01:18;33.42;;;11.15;;
773;SDS011;370;48.810;9.150;2023-02-12T09:03:47;24.05;;;9.82;;
773;SDS011;370;48.810;9.150;2023-02-12T09:06:15;28.05;;;10.82;;
773;SDS011;370;48.810;9.150;2023-02-12T09:08:43;28.52;;;9.98;;
773;SDS011;370;48.810;9.150;2023-02-12T09:11:13;25.48;;;10.57;;
773;SDS011;370;48.810;9.150;2023-02-12T09:13:41;35.38;;;12.93;;
773;SDS011;370;48.810;9.150;2023-02-12T09:16:08;25.30;;;10.40;;
773;SDS011;370;48.810;9.150;2023-02-12T09:18:36;27.90;;;11.75;;
773;SDS011;370;48.810;9.150;2023-02-12T09:21:04;30.95;;;10.85;;
773;SDS011;370;48.810;9.150;2023-02-12T09:23:32;33.53;;;14.48;;
773;SDS011;370;48.810;9.150;2023-02-12T09:25:59;37.83;;;12.80;;
773;SDS011;370;48.810;9.150;2023-02-12T09:28:30;39.05;;;14.20;;
773;SDS011;370;48.810;9.150;2023-02-12T09:30:56;53.30;;;14.45;;
773;SDS011;370;48.810;9.150;2023-02-12T09:33:23;46.30;;;13.23;;
773;SDS011;370;48.810;9.150;2023-02-12T09:35:50;32.83;;;12.15;;
773;SDS011;370;48.810;9.150;2023-02-12T09:38:17;31.23;;;11.32;;
773;SDS011;370;48.810;9.150;2023-02-12T09:40:45;36.58;;;11.43;;
773;SDS011;370;48.810;9.150;2023-02-12T09:43:23;28.75;;;11.48;;
773;SDS011;370;48.810;9.150;2023-02-12T09:45:59;32.55;;;12.48;;
773;SDS011;370;48.810;9.150;2023-02-12T09:51:16;22.77;;;10.77;;
773;SDS011;370;48.810;9.150;2023-02-12T09:53:44;43.00;;;12.82;;
773;SDS011;370;48.810;9.150;2023-02-12T09:56:14;26.95;;;10.00;;
773;SDS011;370;48.810;9.150;2023-02-12T09:58:44;29.23;;;11.65;;
773;SDS011;370;48.810;9.150;2023-02-12T10:01:16;34.13;;;11.02;;
773;SDS011;370;48.810;9.150;2023-02-12T10:03:47;41.95;;;13.93;;
773;SDS011;370;48.810;9.150;2023-02-12T10:06:16;32.17;;;12.13;;
773;SDS011;370;48.810;9.150;2023-02-12T10:08:48;32.65;;;12.18;;
773;SDS011;370;48.810;9.150;2023-02-12T10:11:37;38.72;;;12.27;;
773;SDS011;370;48.810;9.150;2023-02-12T10:14:16;32.70;;;12.15;;
773;SDS011;370;48.810;9.150;2023-02-12T10:16:54;26.33;;;9.98;;
773;SDS011;370;48.810;9.150;2023-02-12T10:19:37;22.77;;;9.32;;
773;SDS011;370;48.810;9.150;2023-02-12T10:22:20;27.48;;;11.43;;
773;SDS011;370;48.810;9.150;2023-02-12T10:24:56;23.50;;;8.45;;
773;SDS011;370;48.810;9.150;2023-02-12T10:27:37;27.58;;;10.50;;
773;SDS011;370;48.810;9.150;2023-02-12T10:30:12;29.55;;;9.93;;
773;SDS011;370;48.810;9.150;2023-02-12T10:32:45;25.90;;;8.70;;
773;SDS011;370;48.810;9.150;2023-02-12T10:35:14;22.23;;;7.88;;
773;SDS011;370;48.810;9.150;2023-02-12T10:37:44;25.48;;;9.05;;
773;SDS011;370;48.810;9.150;2023-02-12T10:40:16;22.35;;;7.85;;
773;SDS011;370;48.810;9.150;2023-02-12T10:42:48;21.60;;;8.60;;
773;SDS011;370;48.810;9.150;2023-02-12T10:45:17;22.83;;;7.68;;
773;SDS011;370;48.810;9.150;2023-02-12T10:47:48;25.80;;;8.02;;
773;SDS011;370;48.810;9.150;2023-02-12T10:50:21;20.17;;;7.90;;
773;SDS011;370;48.810;9.150;2023-02-12T10:52:54;25.60;;;8.98;;
773;SDS011;370;48.810;9.150;2023-02-12T10:55:26;26.20;;;9.20;;
773;SDS011;370;48.810;9.150;2023-02-12T10:57:56;28.40;;;9.05;;
773;SDS011;370;48.810;9.150;2023-02-12T11:00:25;24.50;;;8.05;;
773;SDS011;370;48.810;9.150;2023-02-12T11:03:03;16.23;;;7.45;;
773;SDS011;370;48.810;9.150;2023-02-12T11:05:43;20.80;;;6.18;;
773;SDS011;370;48.810;9.150;2023-02-12T11:08:24;15.82;;;6.80;;
773;SDS011;370;48.810;9.150;2023-02-12T11:10:55;18.77;;;5.00;;
773;SDS011;370;48.810;9.150;2023-02-12T11:13:29;15.60;;;5.88;;
773;SDS011;370;48.810;9.150;2023-02-12T11:15:57;10.38;;;3.60;;
773;SDS011;370;48.810;9.150;2023-02-12T11:18:27;10.05;;;3.78;;
773;SDS011;370;48.810;9.150;2023-02-12T11:20:57;6.30;;;3.47;;
773;SDS011;370;48.810;9.150;2023-02-12T11:23:27;9.13;;;4.03;;
773;SDS011;370;48.810;9.150;2023-02-12T11:25:56;8.07;;;3.35;;
773;SDS011;370;48.810;9.150;2023-02-12T11:28:25;7.93;;;3.40;;
773;SDS011;370;48.810;9.150;2023-02-12T11:30:54;9.95;;;3.45;;
773;SDS011;370;48.810;9.150;2023-02-12T11:33:28;9.13;;;3.05;;
773;SDS011;370;48.810;9.150;2023-02-12T11:35:59;4.70;;;2.80;;
773;SDS011;370;48.810;9.150;2023-02-12T11:38:29;7.97;;;2.72;;
773;SDS011;370;48.810;9.150;2023-02-12T11:40:59;6.95;;;3.72;;
773;SDS011;370;48.810;9.150;2023-02-12T11:43:30;10.20;;;4.07;;
773;SDS011;370;48.810;9.150;2023-02-12T11:46:01;9.15;;;3.95;;
773;SDS011;370;48.810;9.150;2023-02-12T11:48:31;9.68;;;3.55;;
773;SDS011;370;48.810;9.150;2023-02-12T11:51:02;9.52;;;3.45;;
773;SDS011;370;48.810;9.150;2023-02-12T11:53:31;7.03;;;2.80;;
773;SDS011;370;48.810;9.150;2023-02-12T11:56:00;6.43;;;3.22;;
773;SDS011;370;48.810;9.150;2023-02-12T11:58:29;6.30;;;2.85;;
773;SDS011;370;48.810;9.150;2023-02-12T12:00:59;7.38;;;3.53;;
773;SDS011;370;48.810;9.150;2023-02-12T12:03:32;7.78;;;2.80;;
773;SDS011;370;48.810;9.150;2023-02-12T12:06:05;6.63;;;2.92;;
773;SDS011;370;48.810;9.150;2023-02-12T12:08:39;8.93;;;3.42;;
773;SDS011;370;48.810;9.150;2023-02-12T12:11:10;11.18;;;2.97;;
773;SDS011;370;48.810;9.150;2023-02-12T12:13:42;3.35;;;1.95;;
773;SDS011;370;48.810;9.150;2023-02-12T12:16:15;5.63;;;3.08;;
773;SDS011;370;48.810;9.150;2023-02-12T12:19:08;7.68;;;2.20;;
773;SDS011;370;48.810;9.150;2023-02-12T12:21:59;7.63;;;3.45;;
773;SDS011;370;48.810;9.150;2023-02-12T12:24:40;5.90;;;3.22;;
773;SDS011;370;48.810;9.150;2023-02-12T12:27:13;11.32;;;3.40;;
773;SDS011;370;48.810;9.150;2023-02-12T12:30:10;5.45;;;2.70;;
773;SDS011;370;48.810;9.150;2023-02-12T12:32:43;6.57;;;2.83;;
773;SDS011;370;48.810;9.150;2023-02-12T12:35:15;7.05;;;2.88;;
773;SDS011;370;48.810;9.150;2023-02-12T12:37:46;8.52;;;4.10;;
773;SDS011;370;48.810;9.150;2023-02-12T12:40:25;7.25;;;3.58;;
773;SDS011;370;48.810;9.150;2023-02-12T12:43:08;6.80;;;3.40;;
773;SDS011;370;48.810;9.150;2023-02-12T12:45:45;8.23;;;3.70;;
773;SDS011;370;48.810;9.150;2023-02-12T12:51:59;10.82;;;2.63;;
773;SDS011;370;48.810;9.150;2023-02-12T12:54:44;9.70;;;2.65;;
773;SDS011;370;48.810;9.150;2023-02-12T12:57:25;4.53;;;2.50;;
773;SDS011;370;48.810;9.150;2023-02-12T13:00:28;8.37;;;3.50;;
773;SDS011;370;48.810;9.150;2023-02-12T13:03:15;6.03;;;2.80;;
773;SDS011;370;48.810;9.150;2023-02-12T13:06:17;5.70;;;2.50;;
773;SDS011;370;48.810;9.150;2023-02-12T13:09:02;9.90;;;3.60;;
773;SDS011;370;48.810;9.150;2023-02-12T13:11:39;5.28;;;3.20;;
773;SDS011;370;48.810;9.150;2023-02-12T13:14:23;4.35;;;2.70;;
773;SDS011;370;48.810;9.150;2023-02-12T13:17:02;6.40;;;3.60;;
773;SDS011;370;48.810;9.150;2023-02-12T13:19:37;6.50;;;3.38;;
773;SDS011;370;48.810;9.150;2023-02-12T13:22:12;6.07;;;2.35;;
773;SDS011;370;48.810;9.150;2023-02-12T13:24:48;5.65;;;3.05;;
773;SDS011;370;48.810;9.150;2023-02-12T13:27:20;5.60;;;2.63;;
773;SDS011;370;48.810;9.150;2023-02-12T13:29:51;11.45;;;3.40;;
773;SDS011;370;48.810;9.150;2023-02-12T13:32:21;8.32;;;3.53;;
773;SDS011;370;48.810;9.150;2023-02-12T13:34:50;5.60;;;2.95;;
773;SDS011;370;48.810;9.150;2023-02-12T13:37:19;10.45;;;3.10;;
773;SDS011;370;48.810;9.150;2023-02-12T13:39:55;5.78;;;3.05;;
773;SDS011;370;48.810;9.150;2023-02-12T13:42:31;6.75;;;2.28;;
773;SDS011;370;48.810;9.150;2023-02-12T13:45:12;6.05;;;3.00;;
773;SDS011;370;48.810;9.150;2023-02-12T13:47:46;6.50;;;3.15;;
773;SDS011;370;48.810;9.150;2023-02-12T13:50:30;9.68;;;3.28;;
773;SDS011;370;48.810;9.150;2023-02-12T13:53:06;4.00;;;1.92;;
773;SDS011;370;48.810;9.150;2023-02-12T13:55:49;5.65;;;3.03;;
773;SDS011;370;48.810;9.150;2023-02-12T13:58:38;5.35;;;2.00;;
773;SDS011;370;48.810;9.150;2023-02-12T14:01:11;6.95;;;2.08;;
773;SDS011;370;48.810;9.150;2023-02-12T14:04:12;3.85;;;2.00;;
773;SDS011;370;48.810;9.150;2023-02-12T14:06:52;6.85;;;2.80;;
773;SDS011;370;48.810;9.150;2023-02-12T14:09:21;2.92;;;2.05;;
773;SDS011;370;48.810;9.150;2023-02-12T14:11:57;5.40;;;1.98;;
773;SDS011;370;48.810;9.150;2023-02-12T14:14:26;4.28;;;1.85;;
773;SDS011;370;48.810;9.150;2023-02-12T14:16:55;9.20;;;2.10;;
773;SDS011;370;48.810;9.150;2023-02-12T14:22:11;4.03;;;1.90;;
773;SDS011;370;48.810;9.150;2023-02-12T14:24:45;4.28;;;2.00;;
773;SDS011;370;48.810;9.150;2023-02-12T14:27:22;2.97;;;1.60;;
773;SDS011;370;48.810;9.150;2023-02-12T14:32:58;1.63;;;1.50;;
773;SDS011;370;48.810;9.150;2023-02-12T14:35:42;4.72;;;2.30;;
773;SDS011;370;48.810;9.150;2023-02-12T14:41:26;3.53;;;1.60;;
773;SDS011;370;48.810;9.150;2023-02-12T14:53:33;2.42;;;1.77;;
773;SDS011;370;48.810;9.150;2023-02-12T14:56:02;2.58;;;1.67;;
773;SDS011;370;48.810;9.150;2023-02-12T14:58:33;4.13;;;1.27;;
773;SDS011;370;48.810;9.150;2023-02-12T15:01:01;1.83;;;1.65;;
773;SDS011;370;48.810;9.150;2023-02-12T15:03:31;3.10;;;1.20;;
773;SDS011;370;48.810;9.150;2023-02-12T15:06:08;3.05;;;1.55;;
773;SDS011;370;48.810;9.150;2023-02-12T15:08:43;2.63;;;1.40;;
773;SDS011;370;48.810;9.150;2023-02-12T15:11:25;1.23;;;1.17;;
773;SDS011;370;48.810;9.150;2023-02-12T15:13:59;1.08;;;1.00;;
773;SDS011;370;48.810;9.150;2023-02-12T15:16:34;10.23;;;3.90;;
773;SDS011;370;48.810;9.150;2023-02-12T15:19:13;3.72;;;2.15;;
773;SDS011;370;48.810;9.150;2023-02-12T15:21:48;2.90;;;1.10;;
773;SDS011;370;48.810;9.150;2023-02-12T15:24:21;2.72;;;1.40;;
773;SDS011;370;48.810;9.150;2023-02-12T15:26:49;3.42;;;1.77;;
773;SDS011;370;48.810;9.150;2023-02-12T15:29:19;1.95;;;1.45;;
773;SDS011;370;48.810;9.150;2023-02-12T15:31:50;4.45;;;1.30;;
773;SDS011;370;48.810;9.150;2023-02-12T15:34:20;1.77;;;1.63;;
773;SDS011;370;48.810;9.150;2023-02-12T15:36:49;2.22;;;1.33;;
773;SDS011;370;48.810;9.150;2023-02-12T15:39:16;3.67;;;1.15;;
773;SDS011;370;48.810;9.150;2023-02-12T15:41:47;2.17;;;1.58;;
773;SDS011;370;48.810;9.150;2023-02-12T15:44:18;5.07;;;1.80;;
773;SDS011;370;48.810;9.150;2023-02-12T15:46:52;1.70;;;0.90;;
773;SDS011;370;48.810;9.150;2023-02-12T15:49:27;3.17;;;1.75;;
773;SDS011;370;48.810;9.150;2023-02-12T15:51:56;3.25;;;1.95;;
773;SDS011;370;48.810;9.150;2023-02-12T15:54:23;5.15;;;2.20;;
773;SDS011;370;48.810;9.150;2023-02-12T15:56:53;2.53;;;1.60;;
773;SDS011;370;48.810;9.150;2023-02-12T15:59:21;1.48;;;1.00;;
773;SDS011;370;48.810;9.150;2023-02-12T16:01:53;5.88;;;1.65;;
773;SDS011;370;48.810;9.150;2023-02-12T16:04:22;1.90;;;1.30;;
773;SDS011;370;48.810;9.150;2023-02-12T16:06:51;3.97;;;1.85;;
773;SDS011;370;48.810;9.150;2023-02-12T16:09:20;2.78;;;1.80;;
773;SDS011;370;48.810;9.150;2023-02-12T16:11:54;0.95;;;0.88;;
773;SDS011;370;48.810;9.150;2023-02-12T16:14:23;1.80;;;1.63;;
773;SDS011;370;48.810;9.150;2023-02-12T16:16:52;2.50;;;1.50;;
773;SDS011;370;48.810;9.150;2023-02-12T16:19:23;5.70;;;1.48;;
773;SDS011;370;48.810;9.150;2023-02-12T16:21:52;1.83;;;1.73;;
773;SDS011;370;48.810;9.150;2023-02-12T16:24:27;1.52;;;1.10;;
773;SDS011;370;48.810;9.150;2023-02-12T16:26:57;2.65;;;1.90;;
773;SDS011;370;48.810;9.150;2023-02-12T16:29:43;4.95;;;1.55;;